createdAt,value
2022-07-29T00:00:21.865Z,44.92
2022-07-29T00:00:54.129Z,44.95
2022-07-29T00:01:26.041Z,44.82
2022-07-29T00:01:58.050Z,44.97
2022-07-29T00:02:30.439Z,45.42
2022-07-29T00:03:03.935Z,46.11
2022-07-29T00:03:35.910Z,45.90
2022-07-29T00:04:13.459Z,45.95
2022-07-29T00:04:45.788Z,45.68
2022-07-29T00:05:17.929Z,45.52
2022-07-29T00:05:49.837Z,45.81
2022-07-29T00:06:22.080Z,45.70
2022-07-29T00:06:53.974Z,45.61
2022-07-29T00:07:26.172Z,45.59
2022-07-29T00:07:58.159Z,45.63
2022-07-29T00:08:30.102Z,45.87
2022-07-29T00:09:02.019Z,46.15
2022-07-29T00:09:34.105Z,46.12
2022-07-29T00:10:23.526Z,45.91
2022-07-29T00:10:55.489Z,46.08
2022-07-29T00:11:27.703Z,46.03
2022-07-29T00:12:02.034Z,45.67
2022-07-29T00:12:34.000Z,45.62
2022-07-29T00:13:06.609Z,45.61
2022-07-29T00:13:38.739Z,45.60
2022-07-29T00:14:10.954Z,45.60
2022-07-29T00:14:42.953Z,45.58
2022-07-29T00:15:16.309Z,45.68
2022-07-29T00:15:48.275Z,45.75
2022-07-29T00:16:20.258Z,45.66
2022-07-29T00:16:52.622Z,45.85
2022-07-29T00:17:25.409Z,46.03
2022-07-29T00:17:57.374Z,45.72
2022-07-29T00:18:29.289Z,45.77
2022-07-29T00:19:02.614Z,46.05
2022-07-29T00:19:35.263Z,46.22
2022-07-29T00:20:07.997Z,46.14
2022-07-29T00:20:39.919Z,46.09
2022-07-29T00:21:11.843Z,46.29
2022-07-29T00:21:43.812Z,46.25
2022-07-29T00:22:16.198Z,46.36
2022-07-29T00:22:48.400Z,46.19
2022-07-29T00:23:20.341Z,46.18
2022-07-29T00:23:52.345Z,45.96
2022-07-29T00:24:24.211Z,46.05
2022-07-29T00:24:56.134Z,45.98
2022-07-29T00:25:28.253Z,45.79
2022-07-29T00:26:00.150Z,45.79
2022-07-29T00:26:33.554Z,46.07
2022-07-29T00:27:05.501Z,46.02
2022-07-29T00:27:37.961Z,45.95
2022-07-29T00:28:09.941Z,46.01
2022-07-29T00:28:41.887Z,45.94
2022-07-29T00:30:06.948Z,46.43
2022-07-29T00:30:38.992Z,46.09
2022-07-29T00:31:10.943Z,46.15
2022-07-29T00:31:42.977Z,46.06
2022-07-29T00:32:15.039Z,46.09
2022-07-29T00:32:47.945Z,46.52
2022-07-29T00:33:20.144Z,46.53
2022-07-29T00:33:52.053Z,46.31
2022-07-29T00:34:42.677Z,46.11
2022-07-29T00:35:33.653Z,46.33
2022-07-29T00:36:05.707Z,46.27
2022-07-29T00:36:37.595Z,46.22
2022-07-29T00:37:09.491Z,46.29
2022-07-29T00:37:41.423Z,46.18
2022-07-29T00:38:15.095Z,46.20
2022-07-29T00:38:47.110Z,46.23
2022-07-29T00:39:19.117Z,46.32
2022-07-29T00:39:51.611Z,46.47
2022-07-29T00:40:23.812Z,46.46
2022-07-29T00:40:55.747Z,46.65
2022-07-29T00:41:27.653Z,46.74
2022-07-29T00:41:59.652Z,47.06
2022-07-29T00:42:31.572Z,46.96
2022-07-29T00:43:03.679Z,46.88
2022-07-29T00:43:35.952Z,46.72
2022-07-29T00:44:07.855Z,46.58
2022-07-29T00:44:42.618Z,46.50
2022-07-29T00:45:15.248Z,46.41
2022-07-29T00:45:47.274Z,46.30
2022-07-29T00:46:19.270Z,46.11
2022-07-29T00:46:51.289Z,46.08
2022-07-29T00:47:23.297Z,45.97
2022-07-29T00:47:55.292Z,46.19
2022-07-29T00:48:27.185Z,46.40
2022-07-29T00:48:59.469Z,46.40
2022-07-29T00:49:31.502Z,46.35
2022-07-29T00:50:05.808Z,46.44
2022-07-29T00:50:38.976Z,46.60
2022-07-29T00:51:12.159Z,46.61
2022-07-29T00:51:44.128Z,46.44
2022-07-29T00:52:17.086Z,46.26
2022-07-29T00:52:49.630Z,46.57
2022-07-29T00:53:22.482Z,46.25
2022-07-29T00:53:55.052Z,46.33
2022-07-29T00:54:27.955Z,46.43
2022-07-29T00:55:01.726Z,46.62
2022-07-29T00:55:36.485Z,46.76
2022-07-29T00:56:08.463Z,46.83
2022-07-29T00:56:40.371Z,46.74
2022-07-29T00:57:13.012Z,46.71
2022-07-29T00:57:46.353Z,46.59
2022-07-29T00:58:18.315Z,46.56
2022-07-29T00:58:52.559Z,46.44
2022-07-29T00:59:24.654Z,46.39
2022-07-29T01:00:10.812Z,46.40
2022-07-29T01:00:42.950Z,46.49
2022-07-29T01:01:17.459Z,46.62
2022-07-29T01:01:49.542Z,46.66
2022-07-29T01:02:21.608Z,46.49
2022-07-29T01:02:53.878Z,46.41
2022-07-29T01:03:25.899Z,46.29
2022-07-29T01:03:57.891Z,46.19
2022-07-29T01:04:30.841Z,46.06
2022-07-29T01:05:04.916Z,46.10
2022-07-29T01:05:50.811Z,46.20
2022-07-29T01:06:25.082Z,46.58
2022-07-29T01:06:57.093Z,46.43
2022-07-29T01:07:31.035Z,46.51
2022-07-29T01:08:03.873Z,46.43
2022-07-29T01:08:36.962Z,46.30
2022-07-29T01:09:10.594Z,46.42
2022-07-29T01:09:46.832Z,46.36
2022-07-29T01:10:22.198Z,46.12
2022-07-29T01:10:55.882Z,45.85
2022-07-29T01:11:28.529Z,45.73
2022-07-29T01:12:03.519Z,45.87
2022-07-29T01:12:37.894Z,45.91
2022-07-29T01:13:10.733Z,46.06
2022-07-29T01:13:44.500Z,46.20
2022-07-29T01:14:17.517Z,46.54
2022-07-29T01:14:51.312Z,46.61
2022-07-29T01:15:23.507Z,46.43
2022-07-29T01:16:00.233Z,46.62
2022-07-29T01:16:35.474Z,46.29
2022-07-29T01:17:33.287Z,46.26
2022-07-29T01:18:13.066Z,46.37
2022-07-29T01:18:55.010Z,46.35
2022-07-29T01:19:59.891Z,46.62
2022-07-29T01:20:46.734Z,46.52
2022-07-29T01:21:39.993Z,46.43
2022-07-29T01:22:29.956Z,46.18
2022-07-29T01:23:07.822Z,46.19
2022-07-29T01:24:10.753Z,46.25
2022-07-29T01:24:51.636Z,46.13
2022-07-29T01:25:50.789Z,45.91
2022-07-29T01:26:38.518Z,46.00
2022-07-29T01:27:36.470Z,46.17
2022-07-29T01:28:46.399Z,46.44
2022-07-29T01:29:53.976Z,46.54
2022-07-29T01:30:28.198Z,46.40
2022-07-29T01:31:03.615Z,46.26
2022-07-29T01:31:59.031Z,46.19
2022-07-29T01:32:36.551Z,46.05
2022-07-29T01:33:32.484Z,45.99
2022-07-29T01:34:09.052Z,46.29
2022-07-29T01:34:49.796Z,46.34
2022-07-29T01:35:26.184Z,46.14
2022-07-29T01:35:59.990Z,46.00
2022-07-29T01:36:55.366Z,45.92
2022-07-29T01:37:46.343Z,45.90
2022-07-29T01:38:23.265Z,46.03
2022-07-29T01:39:19.561Z,46.23
2022-07-29T01:39:56.104Z,46.14
2022-07-29T01:40:41.159Z,45.97
2022-07-29T01:41:17.412Z,45.81
2022-07-29T01:42:03.380Z,45.95
2022-07-29T01:42:39.175Z,46.02
2022-07-29T01:43:14.527Z,46.20
2022-07-29T01:44:25.124Z,46.06
2022-07-29T01:45:02.979Z,45.79
2022-07-29T01:46:01.430Z,45.86
2022-07-29T01:46:36.874Z,46.24
2022-07-29T01:47:15.132Z,46.28
2022-07-29T01:47:52.986Z,46.37
2022-07-29T01:48:28.087Z,46.19
2022-07-29T01:49:23.108Z,46.09
2022-07-29T01:49:59.400Z,46.06
2022-07-29T01:50:36.128Z,46.02
2022-07-29T01:51:18.795Z,45.83
2022-07-29T01:51:54.512Z,45.83
2022-07-29T01:52:34.919Z,45.79
2022-07-29T01:53:10.411Z,45.97
2022-07-29T01:54:09.839Z,46.17
2022-07-29T01:54:47.096Z,46.27
2022-07-29T01:55:23.608Z,46.23
2022-07-29T01:55:59.101Z,46.14
2022-07-29T01:56:34.774Z,46.04
2022-07-29T01:57:09.434Z,45.87
2022-07-29T01:57:45.155Z,45.73
2022-07-29T01:58:20.239Z,45.63
2022-07-29T01:58:54.500Z,45.63
2022-07-29T01:59:27.255Z,45.66
2022-07-29T02:00:01.871Z,45.64
2022-07-29T02:00:46.227Z,45.74
2022-07-29T02:01:20.755Z,45.81
2022-07-29T02:01:55.479Z,45.97
2022-07-29T02:02:29.000Z,45.98
2022-07-29T02:03:06.585Z,45.92
2022-07-29T02:03:40.104Z,45.83
2022-07-29T02:04:29.274Z,45.75
2022-07-29T02:05:04.461Z,45.65
2022-07-29T02:05:38.808Z,45.66
2022-07-29T02:06:12.592Z,45.76
2022-07-29T02:06:46.788Z,45.81
2022-07-29T02:07:22.185Z,45.94
2022-07-29T02:07:56.755Z,46.10
2022-07-29T02:08:30.235Z,46.12
2022-07-29T02:09:03.697Z,46.37
2022-07-29T02:09:38.818Z,46.41
2022-07-29T02:10:13.352Z,46.48
2022-07-29T02:10:46.819Z,46.49
2022-07-29T02:11:19.193Z,46.29
2022-07-29T02:11:54.433Z,46.37
2022-07-29T02:12:28.909Z,46.23
2022-07-29T02:13:02.260Z,46.14
2022-07-29T02:13:36.897Z,46.08
2022-07-29T02:14:13.423Z,46.05
2022-07-29T02:14:49.236Z,46.20
2022-07-29T02:15:22.584Z,46.40
2022-07-29T02:15:56.359Z,46.47
2022-07-29T02:16:31.876Z,46.49
2022-07-29T02:17:05.095Z,46.42
2022-07-29T02:17:44.851Z,46.66
2022-07-29T02:18:19.601Z,46.73
2022-07-29T02:18:54.796Z,46.81
2022-07-29T02:19:28.514Z,46.86
2022-07-29T02:20:03.502Z,47.00
2022-07-29T02:20:37.204Z,47.31
2022-07-29T02:21:15.080Z,47.32
2022-07-29T02:21:48.711Z,47.29
2022-07-29T02:22:22.082Z,47.30
2022-07-29T02:22:55.784Z,47.17
2022-07-29T02:23:28.494Z,47.22
2022-07-29T02:24:02.133Z,47.25
2022-07-29T02:24:36.608Z,47.29
2022-07-29T02:25:14.167Z,47.38
2022-07-29T02:25:50.136Z,48.11
2022-07-29T02:26:25.522Z,48.11
2022-07-29T02:27:01.226Z,47.96
2022-07-29T02:27:35.591Z,47.89
2022-07-29T02:28:08.804Z,48.07
2022-07-29T02:28:42.028Z,48.43
2022-07-29T02:29:16.368Z,48.40
2022-07-29T02:29:50.155Z,48.54
2022-07-29T02:30:24.194Z,48.77
2022-07-29T02:31:03.259Z,49.08
2022-07-29T02:31:37.701Z,49.04
2022-07-29T02:32:14.338Z,49.30
2022-07-29T02:32:49.353Z,49.55
2022-07-29T02:33:22.624Z,49.67
2022-07-29T02:33:55.809Z,49.85
2022-07-29T02:34:29.383Z,49.82
2022-07-29T02:35:02.637Z,49.78
2022-07-29T02:35:35.116Z,49.63
2022-07-29T02:36:08.241Z,49.61
2022-07-29T02:36:41.542Z,49.81
2022-07-29T02:37:14.496Z,49.78
2022-07-29T02:38:07.742Z,49.74
2022-07-29T02:38:51.334Z,49.54
2022-07-29T02:39:25.431Z,49.38
2022-07-29T02:39:59.641Z,49.36
2022-07-29T02:40:31.600Z,49.59
2022-07-29T02:41:09.028Z,49.44
2022-07-29T02:41:48.810Z,50.07
2022-07-29T02:42:23.788Z,50.95
2022-07-29T02:42:56.349Z,51.73
2022-07-29T02:43:31.065Z,51.30
2022-07-29T02:44:07.280Z,50.74
2022-07-29T02:44:39.256Z,50.11
2022-07-29T02:45:11.809Z,50.55
2022-07-29T02:45:44.436Z,50.82
2022-07-29T02:46:28.333Z,50.85
2022-07-29T02:47:20.294Z,50.46
2022-07-29T02:47:54.260Z,50.46
2022-07-29T02:48:37.512Z,50.82
2022-07-29T02:49:43.427Z,52.42
2022-07-29T02:50:38.638Z,51.99
2022-07-29T02:51:43.538Z,51.71
2022-07-29T02:52:25.608Z,51.19
2022-07-29T02:53:06.580Z,51.52
2022-07-29T02:53:41.022Z,52.24
2022-07-29T02:54:31.982Z,52.34
2022-07-29T02:55:16.610Z,51.81
2022-07-29T02:55:51.524Z,51.44
2022-07-29T02:56:28.709Z,51.25
2022-07-29T02:57:06.869Z,51.15
2022-07-29T02:57:54.086Z,50.91
2022-07-29T02:58:33.093Z,50.86
2022-07-29T02:59:10.620Z,51.05
2022-07-29T02:59:46.302Z,51.02
2022-07-29T03:00:18.802Z,51.08
2022-07-29T03:00:52.715Z,51.13
2022-07-29T03:01:26.697Z,51.08
2022-07-29T03:02:01.367Z,50.97
2022-07-29T03:02:43.228Z,51.63
2022-07-29T03:03:19.121Z,52.30
2022-07-29T03:03:54.900Z,52.94
2022-07-29T03:04:29.548Z,52.64
2022-07-29T03:05:03.456Z,52.08
2022-07-29T03:05:36.209Z,51.89
2022-07-29T03:06:09.618Z,52.55
2022-07-29T03:07:02.278Z,53.14
2022-07-29T03:07:36.177Z,53.78
2022-07-29T03:08:10.672Z,55.09
2022-07-29T03:08:44.552Z,54.57
2022-07-29T03:09:17.007Z,53.75
2022-07-29T03:09:50.981Z,53.31
2022-07-29T03:10:24.293Z,53.80
2022-07-29T03:10:56.758Z,54.57
2022-07-29T03:11:45.874Z,54.59
2022-07-29T03:12:23.186Z,54.42
2022-07-29T03:12:56.955Z,54.16
2022-07-29T03:13:30.527Z,53.79
2022-07-29T03:14:02.879Z,53.92
2022-07-29T03:14:36.113Z,53.82
2022-07-29T03:15:09.424Z,53.79
2022-07-29T03:15:44.692Z,53.29
2022-07-29T03:16:19.557Z,52.85
2022-07-29T03:16:52.292Z,52.90
2022-07-29T03:17:24.664Z,52.62
2022-07-29T03:17:57.683Z,52.38
2022-07-29T03:18:31.384Z,52.32
2022-07-29T03:19:04.858Z,52.41
2022-07-29T03:19:37.025Z,52.29
2022-07-29T03:20:10.521Z,52.18
2022-07-29T03:20:43.273Z,52.17
2022-07-29T03:21:15.232Z,52.50
2022-07-29T03:21:47.393Z,52.50
2022-07-29T03:22:19.891Z,52.15
2022-07-29T03:22:52.054Z,52.35
2022-07-29T03:23:25.114Z,52.63
2022-07-29T03:23:57.098Z,53.04
2022-07-29T03:24:36.594Z,53.04
2022-07-29T03:25:09.741Z,52.89
2022-07-29T03:25:41.960Z,52.77
2022-07-29T03:26:14.384Z,52.76
2022-07-29T03:26:46.414Z,52.58
2022-07-29T03:27:18.472Z,52.84
2022-07-29T03:27:51.238Z,52.92
2022-07-29T03:28:24.054Z,52.89
2022-07-29T03:28:58.959Z,53.00
2022-07-29T03:29:33.601Z,52.83
2022-07-29T03:30:08.910Z,52.59
2022-07-29T03:30:41.349Z,52.46
2022-07-29T03:31:16.530Z,52.40
2022-07-29T03:31:48.554Z,52.45
2022-07-29T03:32:23.874Z,52.44
2022-07-29T03:32:58.772Z,52.73
2022-07-29T03:33:31.403Z,52.87
2022-07-29T03:34:03.871Z,52.71
2022-07-29T03:34:37.677Z,52.71
2022-07-29T03:35:10.030Z,53.05
2022-07-29T03:35:42.582Z,53.05
2022-07-29T03:36:14.558Z,52.83
2022-07-29T03:36:46.613Z,52.77
2022-07-29T03:37:18.547Z,52.92
2022-07-29T03:37:50.590Z,53.24
2022-07-29T03:38:26.164Z,53.57
2022-07-29T03:38:59.117Z,53.50
2022-07-29T03:39:35.379Z,53.37
2022-07-29T03:40:10.231Z,53.42
2022-07-29T03:40:47.705Z,53.63
2022-07-29T03:41:22.513Z,53.66
2022-07-29T03:41:57.303Z,53.49
2022-07-29T03:42:34.813Z,53.33
2022-07-29T03:43:08.199Z,53.39
2022-07-29T03:43:49.807Z,53.32
2022-07-29T03:44:23.102Z,53.51
2022-07-29T03:44:58.068Z,53.37
2022-07-29T03:45:32.829Z,53.48
2022-07-29T03:46:08.895Z,53.73
2022-07-29T03:46:44.380Z,54.07
2022-07-29T03:47:20.007Z,54.24
2022-07-29T03:48:01.192Z,54.35
2022-07-29T03:48:36.689Z,54.45
2022-07-29T03:49:11.425Z,54.38
2022-07-29T03:49:45.555Z,54.43
2022-07-29T03:50:20.365Z,54.54
2022-07-29T03:50:52.928Z,54.39
2022-07-29T03:51:33.505Z,54.24
2022-07-29T03:52:07.166Z,54.81
2022-07-29T03:52:39.363Z,55.15
2022-07-29T03:53:11.784Z,54.90
2022-07-29T03:53:43.869Z,54.48
2022-07-29T03:54:16.198Z,54.16
2022-07-29T03:54:48.753Z,54.00
2022-07-29T03:55:21.142Z,54.13
2022-07-29T03:55:59.296Z,54.02
2022-07-29T03:56:35.630Z,53.73
2022-07-29T03:57:10.621Z,53.74
2022-07-29T03:57:43.687Z,53.88
2022-07-29T03:58:17.356Z,53.65
2022-07-29T03:58:52.673Z,53.62
2022-07-29T03:59:25.135Z,53.58
2022-07-29T03:59:57.728Z,53.82
2022-07-29T04:00:30.698Z,53.73
2022-07-29T04:01:03.495Z,54.03
2022-07-29T04:01:36.712Z,53.82
2022-07-29T04:02:12.060Z,53.94
2022-07-29T04:02:49.786Z,54.13
2022-07-29T04:03:22.627Z,54.54
2022-07-29T04:03:54.867Z,54.83
2022-07-29T04:04:27.373Z,54.71
2022-07-29T04:05:00.921Z,54.50
2022-07-29T04:05:32.825Z,54.36
2022-07-29T04:06:07.715Z,54.09
2022-07-29T04:06:41.686Z,53.98
2022-07-29T04:07:14.836Z,53.83
2022-07-29T04:07:48.255Z,53.77
2022-07-29T04:08:20.206Z,53.68
2022-07-29T04:08:52.221Z,53.62
2022-07-29T04:09:24.529Z,53.59
2022-07-29T04:09:56.537Z,53.74
2022-07-29T04:10:31.567Z,53.81
2022-07-29T04:11:05.639Z,53.84
2022-07-29T04:12:01.601Z,53.73
2022-07-29T04:12:34.039Z,53.60
2022-07-29T04:13:05.973Z,53.39
2022-07-29T04:13:37.909Z,53.27
2022-07-29T04:14:09.870Z,53.36
2022-07-29T04:14:41.754Z,53.27
2022-07-29T04:15:13.679Z,53.15
2022-07-29T04:15:45.615Z,53.10
2022-07-29T04:16:17.896Z,53.09
2022-07-29T04:16:49.901Z,53.07
2022-07-29T04:17:22.125Z,53.09
2022-07-29T04:17:54.051Z,53.07
2022-07-29T04:18:26.320Z,53.44
2022-07-29T04:18:58.298Z,54.53
2022-07-29T04:19:31.123Z,54.83
2022-07-29T04:20:03.606Z,54.84
2022-07-29T04:20:35.587Z,54.64
2022-07-29T04:21:07.490Z,54.59
2022-07-29T04:21:42.797Z,54.35
2022-07-29T04:22:14.695Z,54.02
2022-07-29T04:22:46.612Z,53.78
2022-07-29T04:23:18.563Z,53.69
2022-07-29T04:23:53.847Z,53.72
2022-07-29T04:24:26.191Z,53.60
2022-07-29T04:25:01.770Z,53.52
2022-07-29T04:25:39.644Z,53.58
2022-07-29T04:26:11.929Z,53.62
2022-07-29T04:26:44.205Z,53.68
2022-07-29T04:27:16.118Z,53.71
2022-07-29T04:28:03.672Z,53.79
2022-07-29T04:28:35.577Z,54.42
2022-07-29T04:29:07.511Z,55.60
2022-07-29T04:29:56.360Z,55.00
2022-07-29T04:30:30.694Z,54.49
2022-07-29T04:31:02.911Z,53.97
2022-07-29T04:31:35.067Z,53.77
2022-07-29T04:32:07.432Z,53.83
2022-07-29T04:32:39.428Z,53.98
2022-07-29T04:33:11.717Z,54.07
2022-07-29T04:33:43.676Z,53.97
2022-07-29T04:34:15.865Z,53.85
2022-07-29T04:34:48.901Z,53.72
2022-07-29T04:35:21.924Z,53.70
2022-07-29T04:35:55.101Z,53.83
2022-07-29T04:36:29.293Z,53.74
2022-07-29T04:37:02.035Z,53.76
2022-07-29T04:37:34.324Z,53.72
2022-07-29T04:38:07.113Z,53.93
2022-07-29T04:38:39.624Z,54.10
2022-07-29T04:39:11.554Z,53.85
2022-07-29T04:39:43.478Z,53.68
2022-07-29T04:40:15.397Z,53.63
2022-07-29T04:40:47.335Z,53.50
2022-07-29T04:41:21.748Z,53.47
2022-07-29T04:41:54.933Z,53.66
2022-07-29T04:42:29.442Z,53.75
2022-07-29T04:43:03.219Z,54.04
2022-07-29T04:43:37.874Z,54.10
2022-07-29T04:44:09.789Z,54.22
2022-07-29T04:44:43.139Z,54.33
2022-07-29T04:45:16.123Z,54.50
2022-07-29T04:45:48.145Z,54.52
2022-07-29T04:46:20.285Z,53.86
2022-07-29T04:46:52.276Z,53.66
2022-07-29T04:47:24.252Z,53.71
2022-07-29T04:47:56.899Z,53.66
2022-07-29T04:48:29.302Z,53.53
2022-07-29T04:49:01.580Z,53.30
2022-07-29T04:49:33.541Z,53.37
2022-07-29T04:50:06.943Z,53.48
2022-07-29T04:50:39.928Z,53.60
2022-07-29T04:51:11.824Z,53.76
2022-07-29T04:51:43.790Z,53.67
2022-07-29T04:52:15.748Z,53.52
2022-07-29T04:52:47.710Z,53.62
2022-07-29T04:53:19.743Z,53.71
2022-07-29T04:53:51.969Z,53.87
2022-07-29T04:54:23.936Z,53.88
2022-07-29T04:54:57.655Z,53.95
2022-07-29T04:55:29.547Z,53.94
2022-07-29T04:56:01.500Z,53.85
2022-07-29T04:56:33.451Z,53.56
2022-07-29T04:57:05.353Z,53.48
2022-07-29T04:57:37.330Z,53.67
2022-07-29T04:58:09.382Z,53.68
2022-07-29T04:58:41.274Z,53.80
2022-07-29T04:59:13.485Z,53.99
2022-07-29T04:59:45.397Z,53.99
2022-07-29T05:00:17.516Z,54.08
2022-07-29T05:00:49.896Z,54.16
2022-07-29T05:01:21.943Z,54.34
2022-07-29T05:01:53.993Z,54.63
2022-07-29T05:02:25.973Z,54.87
2022-07-29T05:02:58.001Z,55.31
2022-07-29T05:03:30.025Z,55.36
2022-07-29T05:04:01.918Z,55.36
2022-07-29T05:04:34.140Z,55.10
2022-07-29T05:05:06.430Z,55.06
2022-07-29T05:05:38.882Z,55.00
2022-07-29T05:06:10.812Z,54.60
2022-07-29T05:06:42.916Z,54.35
2022-07-29T05:07:15.260Z,54.18
2022-07-29T05:07:47.144Z,53.99
2022-07-29T05:08:19.067Z,53.89
2022-07-29T05:08:51.002Z,53.86
2022-07-29T05:09:22.964Z,53.65
2022-07-29T05:09:57.898Z,53.43
2022-07-29T05:10:29.939Z,53.32
2022-07-29T05:11:12.079Z,53.36
2022-07-29T05:11:44.981Z,53.53
2022-07-29T05:12:16.999Z,53.39
2022-07-29T05:12:49.122Z,53.56
2022-07-29T05:13:21.473Z,53.66
2022-07-29T05:13:53.370Z,53.46
2022-07-29T05:14:25.344Z,53.20
2022-07-29T05:14:57.572Z,52.98
2022-07-29T05:15:29.571Z,52.92
2022-07-29T05:16:01.591Z,52.49
2022-07-29T05:16:34.498Z,51.99
2022-07-29T05:17:06.468Z,52.19
2022-07-29T05:17:38.390Z,52.25
2022-07-29T05:18:10.354Z,52.18
2022-07-29T05:18:43.265Z,52.13
2022-07-29T05:19:15.768Z,51.74
2022-07-29T05:19:47.730Z,51.50
2022-07-29T05:20:19.939Z,50.98
2022-07-29T05:20:52.445Z,50.84
2022-07-29T05:21:24.374Z,50.81
2022-07-29T05:21:56.272Z,50.88
2022-07-29T05:22:28.379Z,51.04
2022-07-29T05:23:01.492Z,50.96
2022-07-29T05:23:33.440Z,50.58
2022-07-29T05:24:05.599Z,50.42
2022-07-29T05:24:37.527Z,50.08
2022-07-29T05:25:10.639Z,49.88
2022-07-29T05:25:44.652Z,49.84
2022-07-29T05:26:16.992Z,49.81
2022-07-29T05:26:48.938Z,49.82
2022-07-29T05:27:20.952Z,49.82
2022-07-29T05:27:53.412Z,49.97
2022-07-29T05:28:25.370Z,49.86
2022-07-29T05:28:58.055Z,49.61
2022-07-29T05:29:42.794Z,49.43
2022-07-29T05:30:17.171Z,49.31
2022-07-29T05:30:50.522Z,49.71
2022-07-29T05:31:22.950Z,50.31
2022-07-29T05:31:54.962Z,50.55
2022-07-29T05:32:26.862Z,50.22
2022-07-29T05:32:58.780Z,47.42
2022-07-29T05:33:34.646Z,47.47
2022-07-29T05:34:08.733Z,48.28
2022-07-29T05:34:50.712Z,45.99
2022-07-29T05:35:23.592Z,44.22
2022-07-29T05:36:00.333Z,44.53
2022-07-29T05:36:32.943Z,43.90
2022-07-29T05:37:04.901Z,44.11
2022-07-29T05:37:36.826Z,43.94
2022-07-29T05:38:08.907Z,44.05
2022-07-29T05:38:40.805Z,44.07
2022-07-29T05:39:13.942Z,44.01
2022-07-29T05:39:48.862Z,43.56
2022-07-29T05:40:22.889Z,43.15
2022-07-29T05:40:58.210Z,43.00
2022-07-29T05:41:33.257Z,43.09
2022-07-29T05:42:09.472Z,43.15
2022-07-29T05:42:41.471Z,42.61
2022-07-29T05:43:13.394Z,42.49
2022-07-29T05:43:45.576Z,42.32
2022-07-29T05:44:17.936Z,42.24
2022-07-29T05:44:49.951Z,42.54
2022-07-29T05:45:21.917Z,42.34
2022-07-29T05:45:53.860Z,42.01
2022-07-29T05:46:26.168Z,42.18
2022-07-29T05:46:58.082Z,42.63
2022-07-29T05:47:30.088Z,42.64
2022-07-29T05:48:02.025Z,42.63
2022-07-29T05:48:33.898Z,42.72
2022-07-29T05:49:07.454Z,42.23
2022-07-29T05:49:39.584Z,42.26
2022-07-29T05:50:11.562Z,41.93
2022-07-29T05:50:44.225Z,41.53
2022-07-29T05:51:19.629Z,41.62
2022-07-29T05:51:51.908Z,41.42
2022-07-29T05:52:24.302Z,41.52
2022-07-29T05:52:56.280Z,41.43
2022-07-29T05:53:28.409Z,41.67
2022-07-29T05:54:00.392Z,41.51
2022-07-29T05:54:32.346Z,41.53
2022-07-29T05:55:06.555Z,41.14
2022-07-29T05:55:39.854Z,41.21
2022-07-29T05:56:12.344Z,41.42
2022-07-29T05:56:44.315Z,41.36
2022-07-29T05:57:25.324Z,41.34
2022-07-29T05:57:57.090Z,41.30
2022-07-29T05:58:29.196Z,41.17
2022-07-29T05:59:01.098Z,41.59
2022-07-29T05:59:37.491Z,41.42
2022-07-29T06:00:10.306Z,41.59
2022-07-29T06:00:44.513Z,40.99
2022-07-29T06:01:17.937Z,41.68
2022-07-29T06:01:49.935Z,41.42
2022-07-29T06:02:21.900Z,40.83
2022-07-29T06:02:54.101Z,40.84
2022-07-29T06:03:26.627Z,40.92
2022-07-29T06:03:58.820Z,40.94
2022-07-29T06:04:30.841Z,41.10
2022-07-29T06:05:02.892Z,41.09
2022-07-29T06:05:34.828Z,41.43
2022-07-29T06:06:07.275Z,41.24
2022-07-29T06:06:39.681Z,41.03
2022-07-29T06:07:12.363Z,41.28
2022-07-29T06:07:49.997Z,41.71
2022-07-29T06:08:23.154Z,41.59
2022-07-29T06:08:55.122Z,41.54
2022-07-29T06:09:27.097Z,41.45
2022-07-29T06:09:59.049Z,41.57
2022-07-29T06:10:31.018Z,42.07
2022-07-29T06:11:04.671Z,41.95
2022-07-29T06:11:36.629Z,41.75
2022-07-29T06:12:09.908Z,42.04
2022-07-29T06:12:41.832Z,42.04
2022-07-29T06:13:14.049Z,42.05
2022-07-29T06:13:45.958Z,42.03
2022-07-29T06:14:18.163Z,41.90
2022-07-29T06:14:54.193Z,41.88
2022-07-29T06:15:26.329Z,41.67
2022-07-29T06:15:58.401Z,42.18
2022-07-29T06:16:31.380Z,42.13
2022-07-29T06:17:03.352Z,41.82
2022-07-29T06:17:35.722Z,41.65
2022-07-29T06:18:10.210Z,41.58
2022-07-29T06:18:42.998Z,41.82
2022-07-29T06:19:14.908Z,41.78
2022-07-29T06:19:47.230Z,41.22
2022-07-29T06:20:19.422Z,41.01
2022-07-29T06:20:59.249Z,40.99
2022-07-29T06:21:31.165Z,41.25
2022-07-29T06:22:03.207Z,41.30
2022-07-29T06:22:35.430Z,41.27
2022-07-29T06:23:07.411Z,41.40
2022-07-29T06:23:40.015Z,41.46
2022-07-29T06:24:13.879Z,41.40
2022-07-29T06:24:46.026Z,41.14
2022-07-29T06:25:17.979Z,41.11
2022-07-29T06:25:50.510Z,41.42
2022-07-29T06:26:30.238Z,41.32
2022-07-29T06:27:03.598Z,41.60
2022-07-29T06:27:35.822Z,41.34
2022-07-29T06:28:08.103Z,41.54
2022-07-29T06:28:40.039Z,40.81
2022-07-29T06:29:12.375Z,41.02
2022-07-29T06:29:44.328Z,41.61
2022-07-29T06:30:16.239Z,41.51
2022-07-29T06:30:48.226Z,41.59
2022-07-29T06:31:20.389Z,41.28
2022-07-29T06:31:52.339Z,41.59
2022-07-29T06:32:27.384Z,41.66
2022-07-29T06:33:01.298Z,41.77
2022-07-29T06:33:33.236Z,41.68
2022-07-29T06:34:05.571Z,41.85
2022-07-29T06:34:37.720Z,41.64
2022-07-29T06:35:37.688Z,41.59
2022-07-29T06:36:05.351Z,41.48
2022-07-29T06:36:39.797Z,41.82
2022-07-29T06:37:15.582Z,41.71
2022-07-29T06:37:47.919Z,41.69
2022-07-29T06:38:31.439Z,41.07
2022-07-29T06:39:09.871Z,41.31
2022-07-29T06:39:43.775Z,41.73
2022-07-29T06:40:34.485Z,41.30
2022-07-29T06:41:13.480Z,41.50
2022-07-29T06:41:51.552Z,41.40
2022-07-29T06:42:23.465Z,41.16
2022-07-29T06:42:55.385Z,41.57
2022-07-29T06:43:32.378Z,41.62
2022-07-29T06:44:05.692Z,41.28
2022-07-29T06:44:37.668Z,41.01
2022-07-29T06:45:10.948Z,41.08
2022-07-29T06:45:43.912Z,40.89
2022-07-29T06:46:18.492Z,41.37
2022-07-29T06:46:52.564Z,40.99
2022-07-29T06:47:24.449Z,40.77
2022-07-29T06:47:56.413Z,40.88
2022-07-29T06:48:29.927Z,40.63
2022-07-29T06:49:03.295Z,40.49
2022-07-29T06:49:35.329Z,40.37
2022-07-29T06:50:07.806Z,40.58
2022-07-29T06:50:40.757Z,40.66
2022-07-29T06:51:12.987Z,40.31
2022-07-29T06:51:44.981Z,40.22
2022-07-29T06:52:16.886Z,40.56
2022-07-29T06:52:49.156Z,40.55
2022-07-29T06:53:21.423Z,40.41
2022-07-29T06:53:59.322Z,40.74
2022-07-29T06:54:34.418Z,40.70
2022-07-29T06:55:06.943Z,40.44
2022-07-29T06:55:39.000Z,40.68
2022-07-29T06:56:11.028Z,40.94
2022-07-29T06:56:44.030Z,40.91
2022-07-29T06:57:15.937Z,40.58
2022-07-29T06:57:47.872Z,40.65
2022-07-29T06:58:23.572Z,40.66
2022-07-29T06:59:01.516Z,40.43
2022-07-29T06:59:35.779Z,40.70
2022-07-29T07:00:08.846Z,41.05
2022-07-29T07:00:41.546Z,40.77
2022-07-29T07:01:13.976Z,40.50
2022-07-29T07:01:46.144Z,40.43
2022-07-29T07:02:18.228Z,40.35
2022-07-29T07:02:50.268Z,40.23
2022-07-29T07:03:22.485Z,40.45
2022-07-29T07:03:54.386Z,40.60
2022-07-29T07:04:26.571Z,41.17
2022-07-29T07:04:59.703Z,41.12
2022-07-29T07:05:31.652Z,41.22
2022-07-29T07:06:04.373Z,40.84
2022-07-29T07:06:36.980Z,41.15
2022-07-29T07:07:08.967Z,41.25
2022-07-29T07:07:40.988Z,41.52
2022-07-29T07:08:13.898Z,41.22
2022-07-29T07:08:45.811Z,40.91
2022-07-29T07:09:17.703Z,41.14
2022-07-29T07:09:49.925Z,41.25
2022-07-29T07:10:21.832Z,41.07
2022-07-29T07:10:57.309Z,41.02
2022-07-29T07:11:29.761Z,40.97
2022-07-29T07:12:01.656Z,40.76
2022-07-29T07:12:33.577Z,41.06
2022-07-29T07:13:06.362Z,41.55
2022-07-29T07:13:38.722Z,42.03
2022-07-29T07:14:10.653Z,42.03
2022-07-29T07:14:42.851Z,41.80
2022-07-29T07:15:15.067Z,41.47
2022-07-29T07:15:49.369Z,41.68
2022-07-29T07:16:21.379Z,41.41
2022-07-29T07:16:53.371Z,41.34
2022-07-29T07:17:26.767Z,41.30
2022-07-29T07:17:58.722Z,41.11
2022-07-29T07:18:30.854Z,41.33
2022-07-29T07:19:02.886Z,41.25
2022-07-29T07:19:35.076Z,41.15
2022-07-29T07:20:07.463Z,41.33
2022-07-29T07:20:41.355Z,41.13
2022-07-29T07:21:19.123Z,40.91
2022-07-29T07:21:51.457Z,40.27
2022-07-29T07:22:23.431Z,40.31
2022-07-29T07:22:55.370Z,40.65
2022-07-29T07:23:27.327Z,40.25
2022-07-29T07:23:59.830Z,40.26
2022-07-29T07:24:31.795Z,40.11
2022-07-29T07:25:03.921Z,40.16
2022-07-29T07:25:36.044Z,40.53
2022-07-29T07:26:08.345Z,40.54
2022-07-29T07:26:41.081Z,40.22
2022-07-29T07:27:13.005Z,40.36